Latest Weather Observations for Ferny Creek

IDV60801

Issued at 7:42 am EDT Friday 21 January 2022 (issued every 10 minutes, with the page automatically refreshed every 10 minutes)

About weather observations | Map of weather stations | Latest weather observations for VIC | Other Formats
Station Details ID: 086266 Name: FERNY CREEK Lat: -37.87 Lon: 145.35 Height: 512.9 m
Data from the previous 72 hours. | See also: Recent months at Ferny Creek
Date/Time
EDT
Temp
°C
App
Temp
°C
Dew
Point
°C
Rel
Hum
%
Delta-T
°C
Wind Press
QNH
hPa
Press
MSL
hPa
Rain since
9am
mm
Dir  Spd
km/h
Gust
km/h
Spd
kts
Gust
kts
21/07:30am 16.9 15.4 9.1 60 4.1 NNW 7 20 4 11 1028.7 1027.3 0.0
21/07:00am 16.5 14.6 9.0 61 3.9 NNW 9 20 5 11 1028.5 1027.1 0.0
21/06:30am 15.9 14.3 8.9 63 3.7 NNW 7 17 4 9 1028.4 1027.0 0.0
21/06:00am 15.9 14.8 9.8 67 3.2 NNW 6 11 3 6 1028.0 1026.6 0.0
21/05:30am 16.1 14.7 9.5 65 3.5 NNW 7 19 4 10 1027.9 1026.5 0.0
21/05:00am 16.7 15.4 10.1 65 3.6 NNW 7 17 4 9 1027.6 1026.2 0.0
21/04:30am 16.8 15.8 10.9 68 3.2 NNW 7 15 4 8 1027.3 1025.9 0.0
21/04:00am 16.8 15.8 11.1 69 3.1 NNW 7 15 4 8 1027.3 1025.9 0.0
21/03:30am 16.8 15.9 11.5 71 2.9 NW 7 17 4 9 1027.3 1025.9 0.0
21/03:00am 18.4 17.0 11.0 62 4.1 NW 9 13 5 7 1026.8 1025.4 0.0
21/02:30am 19.1 18.4 10.1 56 4.9 NNW 4 7 2 4 1026.8 1025.4 0.0
21/02:00am 19.3 18.8 10.6 57 4.8 NNW 4 7 2 4 1026.8 1025.4 0.0
21/01:30am 18.6 18.4 10.4 59 4.5 NNE 2 4 1 2 1026.8 1025.4 0.0
21/01:00am 19.1 18.5 10.4 57 4.8 NNE 4 9 2 5 1026.7 1025.3 0.0
21/12:30am 19.2 18.3 10.5 57 4.8 NE 6 11 3 6 1026.8 1025.4 0.0
21/12:00am 18.1 17.6 10.7 62 4.1 NE 4 7 2 4 1026.7 1025.3 0.0
 
Date/Time
EDT
Temp
°C
App
Temp
°C
Dew
Point
°C
Rel
Hum
%
Delta-T
°C
Wind Press
QNH
hPa
Press
MSL
hPa
Rain since
9am
mm
Dir  Spd
km/h
Gust
km/h
Spd
kts
Gust
kts
20/11:30pm 17.4 16.5 10.8 65 3.6 ENE 6 9 3 5 1026.6 1025.2 0.0
20/11:00pm 16.6 15.2 10.9 69 3.1 ENE 9 13 5 7 1026.6 1025.2 0.0
20/10:30pm 16.2 14.9 11.2 72 2.8 ENE 9 13 5 7 1026.6 1025.2 0.0
20/10:00pm 16.5 15.6 11.2 71 2.9 ENE 7 11 4 6 1026.6 1025.2 0.0
20/09:30pm 17.3 16.3 11.1 67 3.4 ENE 7 15 4 8 1026.3 1024.9 0.0
20/09:00pm 17.9 16.2 11.2 65 3.7 ENE 11 19 6 10 1025.9 1024.5 0.0
20/08:30pm 18.7 17.0 11.3 62 4.1 E 11 19 6 10 1025.8 1024.4 0.0
20/08:00pm 19.7 18.0 11.2 58 4.7 E 11 19 6 10 1025.9 1024.5 0.0
20/07:30pm 20.9 18.7 10.7 52 5.7 E 13 20 7 11 1025.8 1024.4 0.0
20/07:00pm 22.2 19.7 9.7 45 6.9 ESE 13 22 7 12 1025.6 1024.2 0.0
20/06:30pm 23.2 21.8 9.6 42 7.6 ESE 7 17 4 9 1025.6 1024.2 0.0
20/06:00pm 23.6 21.1 9.6 41 7.8 E 13 20 7 11 1025.6 1024.2 0.0
20/05:30pm 24.1 22.0 9.7 40 8.1 ESE 11 22 6 12 1025.9 1024.5 0.0
20/05:00pm 24.4 22.3 9.9 40 8.1 E 11 19 6 10 1026.1 1024.7 0.0
20/04:30pm 24.1 21.6 9.7 40 8.1 ESE 13 24 7 13 1026.4 1025.0 0.0
20/04:00pm 24.8 23.0 10.7 41 8.0 ENE 11 20 6 11 1026.6 1025.2 0.0
20/03:30pm 24.1 21.9 9.3 39 8.2 E 11 20 6 11 1027.0 1025.6 0.0
20/03:00pm 24.1 22.1 10.0 41 7.9 E 11 20 6 11 1027.2 1025.8 0.0
20/02:30pm 23.9 21.7 9.5 40 8.0 E 11 19 6 10 1027.4 1026.0 0.0
20/02:00pm 23.1 20.8 9.1 41 7.7 E 11 20 6 11 1027.6 1026.2 0.0
20/01:30pm 22.8 21.1 8.5 40 7.8 NE 7 19 4 10 1027.8 1026.4 0.0
20/01:00pm 23.1 21.7 8.8 40 7.8 NE 6 13 3 7 1028.1 1026.7 0.0
20/12:30pm 22.4 21.2 9.6 44 7.1 SSE 6 11 3 6 1028.3 1026.9 0.0
20/12:00pm 21.2 19.9 9.1 46 6.6 SE 6 15 3 8 1028.6 1027.2 0.0
20/11:30am 21.5 20.3 9.7 47 6.5 SE 6 11 3 6 1028.7 1027.3 0.0
20/11:00am 20.4 18.5 7.4 43 6.8 NE 7 13 4 7 1028.9 1027.6 0.0
20/10:30am 19.9 18.2 7.6 45 6.5 E 6 11 3 6 1028.7 1027.3 0.0
20/10:00am 18.6 17.1 8.3 51 5.4 E 6 9 3 5 1028.5 1027.1 0.0
20/09:30am 17.7 16.1 8.0 53 5.1 E 6 7 3 4 1028.4 1027.0 0.0
20/09:00am 16.8 14.6 8.0 56 4.5 E 9 13 5 7 1028.1 1026.7 0.0
20/08:30am 16.3 14.5 9.3 63 3.7 ENE 9 15 5 8 1027.8 1026.4 0.0
20/08:00am 14.7 12.5 8.0 64 3.4 ENE 9 15 5 8 1027.8 1026.4 0.0
20/07:30am 13.6 11.2 8.7 72 2.5 ENE 11 19 6 10 1027.7 1026.3 0.0
20/07:00am 12.4 10.0 8.7 78 1.9 ENE 11 17 6 9 1027.8 1026.4 0.0
20/06:30am 11.5 8.7 8.4 81 1.6 E 13 22 7 12 1026.9 1025.5 0.0
20/06:00am 11.6 9.2 8.5 81 1.6 E 11 19 6 10 1026.7 1025.3 0.0
20/05:30am 11.7 8.9 8.4 80 1.7 ESE 13 24 7 13 1026.6 1025.2 0.0
20/05:00am 11.7 8.2 8.6 81 1.6 ESE 17 30 9 16 1026.3 1024.9 0.0
20/04:30am 11.7 8.5 8.6 81 1.6 E 15 26 8 14 1026.0 1024.6 0.0
20/04:00am 11.7 8.2 8.7 82 1.5 E 17 26 9 14 1025.7 1024.3 0.0
20/03:30am 11.9 8.8 8.9 82 1.5 ESE 15 26 8 14 1026.1 1024.7 0.0
20/03:00am 11.9 9.0 9.5 85 1.2 E 15 26 8 14 1026.3 1024.9 0.0
20/02:30am 11.9 8.3 10.0 88 1.0 E 19 32 10 17 1026.3 1024.9 0.0
20/02:00am 12.1 8.6 10.2 88 1.0 E 19 35 10 19 1026.5 1025.1 0.0
20/01:30am 12.1 8.6 10.2 88 1.0 ESE 19 32 10 17 1026.9 1025.5 0.0
20/01:00am 12.1 9.7 10.0 87 1.1 ESE 13 20 7 11 1027.3 1025.9 0.0
20/12:30am 12.2 10.1 9.9 86 1.2 ESE 11 20 6 11 1027.0 1025.6 0.0
20/12:00am 12.2 9.7 9.8 85 1.2 E 13 22 7 12 1026.9 1025.5 0.0
 
Date/Time
EDT
Temp
°C
App
Temp
°C
Dew
Point
°C
Rel
Hum
%
Delta-T
°C
Wind Press
QNH
hPa
Press
MSL
hPa
Rain since
9am
mm
Dir  Spd
km/h
Gust
km/h
Spd
kts
Gust
kts
19/11:30pm 12.5 9.2 9.7 83 1.5 E 17 30 9 16 1026.5 1025.1 0.0
19/11:00pm 12.8 9.8 9.3 79 1.8 E 15 28 8 15 1026.3 1024.9 0.0
19/10:30pm 13.2 9.4 9.1 76 2.1 E 19 30 10 16 1026.0 1024.6 0.0
19/10:00pm 13.6 9.2 8.9 73 2.4 E 22 37 12 20 1025.6 1024.2 0.0
19/09:30pm 14.1 10.1 9.1 72 2.6 E 20 39 11 21 1025.5 1024.1 0.0
19/09:00pm 14.6 10.6 9.2 70 2.8 E 20 37 11 20 1025.2 1023.7 0.0
19/08:30pm 15.3 11.4 9.4 68 3.1 E 20 33 11 18 1024.8 1023.4 0.0
19/08:00pm 15.8 11.1 9.2 65 3.5 E 24 37 13 20 1024.5 1023.1 0.0
19/07:30pm 16.5 10.6 9.0 61 4.0 E 30 43 16 23 1024.3 1022.9 0.0
19/07:09pm 16.8 11.3 9.2 61 4.0 E 28 46 15 25 1024.0 1022.6 0.0
19/07:00pm 16.9 11.8 9.1 60 4.1 E 26 46 14 25 1023.8 1022.4 0.0
19/06:36pm 17.3 11.4 9.0 58 4.4 E 30 48 16 26 1023.6 1022.1 0.0
19/06:30pm 17.4 11.2 9.3 59 4.3 E 32 44 17 24 1023.7 1022.2 0.0
19/06:00pm 18.1 12.6 9.2 56 4.8 E 28 46 15 25 1023.4 1021.9 0.0
19/05:30pm 18.7 13.2 9.2 54 5.1 E 28 48 15 26 1023.4 1021.9 0.0
19/05:00pm 19.0 12.8 9.2 53 5.3 E 32 54 17 29 1023.3 1021.8 0.0
19/04:35pm 19.4 14.0 9.6 53 5.3 E 28 48 15 26 1023.1 1021.6 0.0
19/04:30pm 19.8 14.6 10.2 54 5.3 E 28 46 15 25 1023.2 1021.7 0.0
19/04:04pm 19.9 14.6 10.0 53 5.4 E 28 52 15 28 1023.2 1021.7 0.0
19/04:00pm 19.9 15.2 10.6 55 5.2 E 26 39 14 21 1023.2 1021.7 0.0
19/03:31pm 19.9 14.9 10.9 56 5.0 E 28 48 15 26 1023.2 1021.7 0.0
19/03:30pm 19.8 15.1 10.8 56 5.0 E 26 48 14 26 1023.2 1021.7 0.0
19/03:07pm 19.8 14.8 10.8 56 5.0 E 28 48 15 26 1023.3 1021.8 0.0
19/03:00pm 20.2 16.1 11.4 57 5.0 E 24 41 13 22 1023.3 1021.8 0.0
19/02:31pm 19.6 14.6 10.9 57 4.9 E 28 48 15 26 1023.5 1022.0 0.0
19/02:30pm 19.7 15.1 10.9 57 4.9 E 26 48 14 26 1023.5 1022.0 0.0
19/02:00pm 20.1 16.3 11.1 56 5.0 E 22 46 12 25 1023.3 1021.8 0.0
19/01:30pm 20.3 15.8 11.5 57 5.0 E 26 43 14 23 1023.3 1021.8 0.0
19/01:00pm 20.7 16.8 10.8 53 5.5 E 22 37 12 20 1023.3 1021.8 0.0
19/12:30pm 20.7 17.5 11.9 57 5.0 E 20 35 11 19 1022.9 1021.5 0.0
19/12:04pm 19.1 14.0 10.6 58 4.7 E 28 46 15 25 1023.2 1021.7 0.0
19/12:00pm 19.4 14.8 10.9 58 4.7 E 26 41 14 22 1023.2 1021.7 0.0
19/11:30am 18.7 15.0 11.5 63 4.0 E 22 41 12 22 1023.1 1021.6 0.0
19/11:00am 19.3 16.3 12.6 65 3.8 E 20 35 11 19 1022.9 1021.5 0.0
19/10:30am 18.2 13.8 11.7 66 3.7 E 26 48 14 26 1022.6 1021.2 0.0
19/10:00am 18.4 14.8 11.7 65 3.8 E 22 39 12 21 1022.3 1020.9 0.0
19/09:30am 17.4 13.8 11.9 70 3.1 E 22 37 12 20 1022.1 1020.7 0.0
19/09:00am 16.5 12.8 11.6 73 2.7 E 22 37 12 20 1021.9 1020.4 -
19/08:30am 15.2 11.4 11.2 77 2.2 E 22 37 12 20 1021.3 1019.8 -
19/08:00am 14.4 11.2 11.2 81 1.7 E 19 35 10 19 1020.7 1019.3 -
19/07:30am 13.3 9.5 11.0 86 1.2 E 22 35 12 19 1020.2 1018.7 -
19/07:00am 12.4 7.8 11.0 91 0.8 ESE 26 43 14 23 1019.7 1018.2 -
19/06:30am 11.6 8.2 11.1 97 0.3 E 20 30 11 16 1019.3 1017.8 -
19/06:00am 11.5 8.7 11.2 98 0.2 ESE 17 28 9 15 1019.2 1017.7 -
19/05:30am 11.5 8.0 11.0 97 0.3 ESE 20 33 11 18 1019.0 1017.5 -
19/05:00am 11.6 7.4 11.0 96 0.3 E 24 39 13 21 1018.2 1016.7 -
19/04:30am 11.2 6.9 10.7 97 0.3 E 24 39 13 21 1018.0 1016.5 -
19/04:00am 11.5 7.0 10.2 92 0.7 E 24 35 13 19 1017.8 1016.3 -
19/03:30am 11.8 6.9 10.0 89 0.9 E 26 37 14 20 1017.7 1016.2 -
19/03:00am 11.9 7.3 9.8 87 1.1 E 24 41 13 22 1017.8 1016.3 -
19/02:30am 12.0 7.4 9.6 85 1.3 ESE 24 39 13 21 1017.9 1016.4 -
19/02:00am 11.7 7.7 10.3 91 0.7 ESE 22 35 12 19 1018.2 1016.7 0.0
19/01:30am 11.7 8.6 10.3 91 0.7 ESE 17 28 9 15 1018.6 1017.2 0.0
19/01:00am 11.3 9.0 10.4 94 0.5 ESE 13 24 7 13 1019.0 1017.5 0.0
19/12:30am 11.4 9.2 10.9 97 0.3 ESE 13 30 7 16 1018.9 1017.4 0.0
19/12:00am 11.1 9.5 10.2 94 0.5 ESE 9 20 5 11 1019.1 1017.6 0.0
 
Date/Time
EDT
Temp
°C
App
Temp
°C
Dew
Point
°C
Rel
Hum
%
Delta-T
°C
Wind Press
QNH
hPa
Press
MSL
hPa
Rain since
9am
mm
Dir  Spd
km/h
Gust
km/h
Spd
kts
Gust
kts
18/11:30pm 11.3 9.6 9.9 91 0.7 ESE 9 20 5 11 1019.3 1017.8 0.0
18/11:00pm 11.5 10.2 9.9 90 0.8 ESE 7 17 4 9 1019.3 1017.8 0.0
18/10:30pm 11.2 9.9 9.3 88 1.0 SSE 6 11 3 6 1019.3 1017.8 0.0
18/10:00pm 11.4 10.0 8.8 84 1.3 SE 6 13 3 7 1019.4 1017.9 0.0
18/09:30pm 11.9 10.2 8.4 79 1.8 SE 7 20 4 11 1019.3 1017.8 0.0
18/09:00pm 12.1 10.2 7.4 73 2.3 SE 7 19 4 10 1018.9 1017.4 0.0
18/08:30pm 12.8 10.5 7.5 70 2.7 SE 9 19 5 10 1018.5 1017.0 0.0
18/08:00pm 13.5 11.4 8.1 70 2.7 ESE 9 22 5 12 1018.0 1016.5 0.0
18/07:30pm 13.7 11.7 8.5 71 2.7 SE 9 20 5 11 1017.4 1015.9 0.0
18/07:00pm 14.1 11.7 8.7 70 2.8 SE 11 24 6 13 1017.4 1015.9 0.0
18/06:30pm 14.8 12.9 9.2 69 2.9 SE 9 26 5 14 1017.2 1015.7 0.0
18/06:00pm 15.4 13.1 9.1 66 3.3 SE 11 26 6 14 1017.1 1015.6 0.0
18/05:30pm 16.2 14.3 9.2 63 3.7 SE 9 20 5 11 1016.9 1015.3 0.0
18/05:00pm 15.9 14.1 9.3 65 3.5 SE 9 19 5 10 1017.2 1015.7 0.0
18/04:30pm 15.1 12.4 8.8 66 3.3 ESE 13 24 7 13 1017.1 1015.6 0.0
18/04:00pm 16.1 14.1 10.0 67 3.3 ESE 11 22 6 12 1017.2 1015.7 0.0
18/03:30pm 16.2 14.3 8.9 62 3.8 SE 9 20 5 11 1017.4 1015.9 0.0
18/03:00pm 16.3 14.1 9.3 63 3.7 ESE 11 22 6 12 1017.2 1015.7 0.0
18/02:30pm 16.7 14.2 8.1 57 4.5 ESE 11 19 6 10 1017.3 1015.8 0.0
18/02:00pm 17.4 15.8 8.8 57 4.6 ESE 7 17 4 9 1017.3 1015.8 0.0
18/01:30pm 17.0 15.0 8.7 58 4.4 SE 9 15 5 8 1017.5 1016.0 0.0
18/01:00pm 15.9 14.4 9.3 65 3.5 ESE 7 15 4 8 1017.6 1016.1 0.0
18/12:30pm 16.6 14.5 8.1 57 4.4 SE 9 17 5 9 1017.4 1015.9 0.0
18/12:00pm 15.6 14.0 8.6 63 3.7 ESE 7 17 4 9 1017.5 1016.0 0.0
18/11:30am 15.3 13.9 8.8 65 3.4 ESE 6 13 3 7 1017.6 1016.1 0.0
18/11:00am 15.5 13.9 8.7 64 3.6 ESE 7 15 4 8 1017.9 1016.4 0.0
18/10:30am 14.3 12.7 8.9 70 2.8 ESE 7 17 4 9 1017.6 1016.1 0.0
18/10:00am 15.0 13.9 9.8 71 2.8 ESE 6 13 3 7 1017.4 1015.9 0.0
18/09:30am 13.3 11.8 9.0 75 2.2 ESE 7 13 4 7 1017.3 1015.8 0.0
18/09:00am 13.4 11.6 9.3 76 2.1 ESE 9 17 5 9 1017.0 1015.5 -
18/08:30am 13.1 11.7 9.7 80 1.8 SE 7 13 4 7 1017.0 1015.5 -
18/08:00am 12.7 11.6 9.9 83 1.5 ESE 6 9 3 5 1016.7 1015.2 -

Other formats

Comma delimited format used in spreadsheet applications
http://www.bom.gov.au/fwo/IDV60801/IDV60801.94872.axf

JavaScript Object Notation format (JSON) in row-major order
http://www.bom.gov.au/fwo/IDV60801/IDV60801.94872.json

Data quality

Most of these data are generated automatically and are frequently updated. Quality checks on data are not normally performed. It is possible for incorrect values to appear. Refer to information at About Latest Weather Observations and please check the disclaimer before using these data.